Terminal Aerodrome Forecast
Issued by NWS

Home | Current Version | Previous Version | Text Only | Print | Product List | Glossary On
Versions: 1 2 3 4 5 6 7 8 9 10 11 12 13 14 15 16 17
000
FTUS45 KBOI 231751
TAFTWF
TAF
KTWF 231751Z 2318/2418 25015G22KT P6SM VCSH BKN100
     FM240300 20011KT P6SM SCT120
     FM240800 19008KT P6SM SCT080 BKN100
     FM241700 26015G25KT P6SM -RA OVC035=

USA.gov is the U.S. government's official web portal to all federal, state and local government web resources and services.